Terminal Aerodrome Forecast
Issued by NWS

Home | Current Version | Previous Version | Text Only | Print | Product List | Glossary On
Versions: 1 2 3 4 5 6 7 8 9 10 11 12 13
000
FTUS46 KSEW 240500
TAFCLM
TAF
KCLM 240524Z 2406/2506 07006KT P6SM -RA BKN035 OVC050
     FM241900 27008KT P6SM -SHRA BKN035 BKN050
     FM242100 30006KT P6SM VCSH SCT035 BKN050
     FM250300 28005KT P6SM VCSH SCT040 BKN060=

USA.gov is the U.S. government's official web portal to all federal, state and local government web resources and services.